createdAt,value
2022-08-17T00:02:05.818Z,18.03
2022-08-17T00:04:50.568Z,18.03
2022-08-17T00:07:17.356Z,18.08
2022-08-17T00:09:43.877Z,18.02
2022-08-17T00:12:43.513Z,17.89
2022-08-17T00:14:57.312Z,18.10
2022-08-17T00:17:23.977Z,18.04
2022-08-17T00:19:50.517Z,18.06
2022-08-17T00:22:32.379Z,18.05
2022-08-17T00:25:03.010Z,18.00
2022-08-17T00:27:29.587Z,17.98
2022-08-17T00:29:56.133Z,17.79
2022-08-17T00:33:11.582Z,17.77
2022-08-17T00:35:11.180Z,17.74
2022-08-17T00:37:37.739Z,17.75
2022-08-17T00:40:05.254Z,17.74
2022-08-17T00:42:31.960Z,17.62
2022-08-17T00:44:59.374Z,17.56
2022-08-17T00:47:26.173Z,17.52
2022-08-17T00:49:53.168Z,17.52
2022-08-17T00:52:24.804Z,17.45
2022-08-17T00:54:54.839Z,17.42
2022-08-17T00:57:24.739Z,17.40
2022-08-17T01:00:02.235Z,17.40
2022-08-17T01:02:34.363Z,17.28
2022-08-17T01:05:07.663Z,17.25
2022-08-17T01:07:34.665Z,17.21
2022-08-17T01:10:07.568Z,17.21
2022-08-17T01:12:54.342Z,17.23
2022-08-17T01:15:20.904Z,17.18
2022-08-17T01:17:48.163Z,17.14
2022-08-17T01:20:15.099Z,17.03
2022-08-17T01:22:41.706Z,17.06
2022-08-17T01:25:09.045Z,17.11
2022-08-17T01:27:37.046Z,17.18
2022-08-17T01:30:57.718Z,17.30
2022-08-17T01:32:54.130Z,17.29
2022-08-17T01:35:20.680Z,17.22
2022-08-17T01:37:47.260Z,17.23
2022-08-17T01:40:46.412Z,17.08
2022-08-17T01:43:22.707Z,16.93
2022-08-17T01:46:03.731Z,16.73
2022-08-17T01:48:36.546Z,16.64
2022-08-17T01:51:07.185Z,16.83
2022-08-17T01:53:42.369Z,16.94
2022-08-17T01:56:14.450Z,17.07
2022-08-17T01:58:42.021Z,16.95
2022-08-17T02:01:10.132Z,16.76
2022-08-17T02:03:38.006Z,16.73
2022-08-17T02:06:06.174Z,16.69
2022-08-17T02:09:02.362Z,16.67
2022-08-17T02:11:32.863Z,16.64
2022-08-17T02:14:03.301Z,16.60
2022-08-17T02:16:36.902Z,16.64
2022-08-17T02:19:10.217Z,16.71
2022-08-17T02:21:38.338Z,16.58
2022-08-17T02:24:08.808Z,16.43
2022-08-17T02:26:35.458Z,16.67
2022-08-17T02:29:02.164Z,16.75
2022-08-17T02:31:29.477Z,16.74
2022-08-17T02:33:56.618Z,16.42
2022-08-17T02:36:31.863Z,16.43
2022-08-17T02:38:58.745Z,16.51
2022-08-17T02:41:25.628Z,16.45
2022-08-17T02:43:53.199Z,16.43
2022-08-17T02:46:19.722Z,16.46
2022-08-17T02:48:46.323Z,16.43
2022-08-17T02:51:12.846Z,16.32
2022-08-17T02:53:39.396Z,16.18
2022-08-17T02:56:06.238Z,16.23
2022-08-17T02:58:35.471Z,16.23
2022-08-17T03:01:05.291Z,16.18
2022-08-17T03:03:32.502Z,16.15
2022-08-17T03:05:59.040Z,16.16
2022-08-17T03:08:25.653Z,16.13
2022-08-17T03:10:52.656Z,16.17
2022-08-17T03:13:20.160Z,16.23
2022-08-17T03:15:47.751Z,16.41
2022-08-17T03:18:24.274Z,16.39
2022-08-17T03:20:52.727Z,16.30
2022-08-17T03:23:24.098Z,16.21
2022-08-17T03:25:53.524Z,16.17
2022-08-17T03:28:21.553Z,16.15
2022-08-17T03:30:48.273Z,16.18
2022-08-17T03:33:15.007Z,16.18
2022-08-17T03:35:42.111Z,16.06
2022-08-17T03:38:15.934Z,16.06
2022-08-17T03:40:57.313Z,16.13
2022-08-17T03:43:30.558Z,16.01
2022-08-17T03:46:27.689Z,16.05
2022-08-17T03:49:18.719Z,16.12
2022-08-17T03:52:04.682Z,16.09
2022-08-17T03:54:49.964Z,15.94
2022-08-17T03:57:16.725Z,15.91
2022-08-17T03:59:44.883Z,15.99
2022-08-17T04:02:19.028Z,15.98
2022-08-17T04:04:45.580Z,15.81
2022-08-17T04:07:12.770Z,15.83
2022-08-17T04:09:39.461Z,15.82
2022-08-17T04:12:06.192Z,15.85
2022-08-17T04:14:50.819Z,15.86
2022-08-17T04:17:21.720Z,15.81
2022-08-17T04:19:48.456Z,15.75
2022-08-17T04:22:33.235Z,15.67
2022-08-17T04:25:16.821Z,15.80
2022-08-17T04:27:43.519Z,15.89
2022-08-17T04:30:10.779Z,16.05
2022-08-17T04:33:02.291Z,16.15
2022-08-17T04:35:37.014Z,16.10
2022-08-17T04:38:03.956Z,16.26
2022-08-17T04:40:49.078Z,16.30
2022-08-17T04:43:18.971Z,16.24
2022-08-17T04:45:55.772Z,16.32
2022-08-17T04:48:29.844Z,16.43
2022-08-17T04:51:03.388Z,16.52
2022-08-17T04:53:59.831Z,16.51
2022-08-17T04:56:28.344Z,16.51
2022-08-17T04:58:58.611Z,16.63
2022-08-17T05:01:28.147Z,16.71
2022-08-17T05:04:02.307Z,16.76
2022-08-17T05:06:48.204Z,16.83
2022-08-17T05:09:15.668Z,16.78
2022-08-17T05:11:44.957Z,16.92
2022-08-17T05:14:12.177Z,16.89
2022-08-17T05:16:38.747Z,17.12
2022-08-17T05:19:05.409Z,17.12
2022-08-17T05:21:32.019Z,17.17
2022-08-17T05:23:59.536Z,17.34
2022-08-17T05:26:29.339Z,17.26
2022-08-17T05:29:00.643Z,17.47
2022-08-17T05:31:30.542Z,17.51
2022-08-17T05:33:57.367Z,17.65
2022-08-17T05:36:42.442Z,17.61
2022-08-17T05:39:16.624Z,17.68
2022-08-17T05:41:45.463Z,17.77
2022-08-17T05:44:12.022Z,17.85
2022-08-17T05:46:44.114Z,17.95
2022-08-17T05:49:12.685Z,18.00
2022-08-17T05:51:47.097Z,18.07
2022-08-17T05:54:32.130Z,18.14
2022-08-17T05:57:28.155Z,18.24
2022-08-17T06:00:43.245Z,18.39
2022-08-17T06:03:09.794Z,18.44
2022-08-17T06:05:36.254Z,18.52
2022-08-17T06:08:10.275Z,18.66
2022-08-17T06:11:07.545Z,18.67
2022-08-17T06:14:02.520Z,18.81
2022-08-17T06:16:38.778Z,18.93
2022-08-17T06:19:33.773Z,18.98
2022-08-17T06:22:02.678Z,19.04
2022-08-17T06:24:35.267Z,19.04
2022-08-17T06:27:09.961Z,19.13
2022-08-17T06:29:54.691Z,19.29
2022-08-17T06:32:21.399Z,19.39
2022-08-17T06:34:48.138Z,19.50
2022-08-17T06:37:33.291Z,19.57
2022-08-17T06:40:17.974Z,19.63
2022-08-17T06:43:06.896Z,19.76
2022-08-17T06:45:49.276Z,19.87
2022-08-17T06:48:24.449Z,19.94
2022-08-17T06:51:02.899Z,20.08
2022-08-17T06:53:29.527Z,20.09
2022-08-17T06:56:03.255Z,20.24
2022-08-17T06:58:31.981Z,20.27
2022-08-17T07:01:26.810Z,20.29
2022-08-17T07:04:11.927Z,20.50
2022-08-17T07:06:52.327Z,20.61
2022-08-17T07:09:26.032Z,20.68
2022-08-17T07:11:58.176Z,20.77
2022-08-17T07:14:31.390Z,20.95
2022-08-17T07:17:01.567Z,21.19
2022-08-17T07:19:31.956Z,21.41
2022-08-17T07:22:14.246Z,21.59
2022-08-17T07:25:03.134Z,21.78
2022-08-17T07:27:38.375Z,21.74
2022-08-17T07:30:10.593Z,21.95
2022-08-17T07:32:50.932Z,22.23
2022-08-17T07:35:41.378Z,22.43
2022-08-17T07:38:35.488Z,22.53
2022-08-17T07:41:06.256Z,22.70
2022-08-17T07:43:39.979Z,22.65
2022-08-17T07:46:31.050Z,22.65
2022-08-17T07:48:58.909Z,22.79
2022-08-17T07:51:30.019Z,22.87
2022-08-17T07:54:13.898Z,22.99
2022-08-17T07:56:48.536Z,23.09
2022-08-17T07:59:18.227Z,23.29
2022-08-17T08:02:01.239Z,23.45
2022-08-17T08:05:00.127Z,23.31
2022-08-17T08:07:20.866Z,23.58
2022-08-17T08:10:20.558Z,23.81
2022-08-17T08:12:48.951Z,23.86
2022-08-17T08:15:33.428Z,23.97
2022-08-17T08:18:03.737Z,23.90
2022-08-17T08:20:51.147Z,24.12
2022-08-17T08:23:33.977Z,24.48
2022-08-17T08:26:08.025Z,24.69
2022-08-17T08:28:40.382Z,24.71
2022-08-17T08:31:19.456Z,24.84
2022-08-17T08:34:55.877Z,24.71
2022-08-17T08:37:35.600Z,24.90
2022-08-17T08:40:42.888Z,25.07
2022-08-17T08:43:27.135Z,25.24
2022-08-17T08:46:28.942Z,25.55
2022-08-17T08:50:02.150Z,25.68
2022-08-17T08:52:36.431Z,25.88
2022-08-17T08:55:18.491Z,25.95
2022-08-17T08:58:02.731Z,26.16
2022-08-17T09:00:35.829Z,26.17
2022-08-17T09:03:36.754Z,26.31
2022-08-17T09:06:57.913Z,26.23
2022-08-17T09:09:42.322Z,26.63
2022-08-17T09:12:21.257Z,26.39
2022-08-17T09:15:22.378Z,26.55
2022-08-17T09:19:02.527Z,26.80
2022-08-17T09:21:19.257Z,26.87
2022-08-17T09:24:12.799Z,26.94
2022-08-17T09:27:10.226Z,27.11
2022-08-17T09:29:40.703Z,27.08
2022-08-17T09:32:20.175Z,26.97
2022-08-17T09:34:53.617Z,27.23
2022-08-17T09:37:27.971Z,27.49
2022-08-17T09:40:14.824Z,27.60
2022-08-17T09:42:56.269Z,27.62
2022-08-17T09:45:57.233Z,27.55
2022-08-17T09:48:31.947Z,27.45
2022-08-17T09:51:08.439Z,27.54
2022-08-17T09:53:39.192Z,27.56
2022-08-17T09:56:16.262Z,27.73
2022-08-17T09:58:56.433Z,27.68
2022-08-17T10:01:31.329Z,27.48
2022-08-17T10:04:00.972Z,27.64
2022-08-17T10:06:33.648Z,27.50
2022-08-17T10:09:15.624Z,27.62
2022-08-17T10:12:04.997Z,27.74
2022-08-17T10:14:44.197Z,27.87
2022-08-17T10:17:44.810Z,27.96
2022-08-17T10:20:20.664Z,28.00
2022-08-17T10:23:15.125Z,28.22
2022-08-17T10:26:04.147Z,28.31
2022-08-17T10:28:40.903Z,28.49
2022-08-17T10:31:34.137Z,28.65
2022-08-17T10:34:25.324Z,28.83
2022-08-17T10:37:29.403Z,28.64
2022-08-17T10:40:31.124Z,28.61
2022-08-17T10:43:18.276Z,28.51
2022-08-17T10:45:51.471Z,28.51
2022-08-17T10:48:39.109Z,28.59
2022-08-17T10:51:29.755Z,28.67
2022-08-17T10:53:57.991Z,28.62
2022-08-17T10:56:38.407Z,28.71
2022-08-17T10:59:05.702Z,28.46
2022-08-17T11:01:32.231Z,28.59
2022-08-17T11:04:09.874Z,28.87
2022-08-17T11:06:41.939Z,28.89
2022-08-17T11:09:23.715Z,29.23
2022-08-17T11:12:25.763Z,29.35
2022-08-17T11:15:16.946Z,29.35
2022-08-17T11:18:08.840Z,29.53
2022-08-17T11:20:41.491Z,29.58
2022-08-17T11:23:38.752Z,29.49
2022-08-17T11:26:27.702Z,29.50
2022-08-17T11:29:00.022Z,29.41
2022-08-17T11:31:38.549Z,29.81
2022-08-17T11:34:13.383Z,29.85
2022-08-17T11:37:01.968Z,29.51
2022-08-17T11:39:34.557Z,29.54
2022-08-17T11:42:16.548Z,29.35
2022-08-17T11:45:09.639Z,29.32
2022-08-17T11:51:18.519Z,29.49
2022-08-17T11:54:14.729Z,29.35
2022-08-17T11:56:50.746Z,29.40
2022-08-17T11:59:46.028Z,29.68
2022-08-17T12:02:35.097Z,29.88
2022-08-17T12:05:27.238Z,29.94
2022-08-17T12:08:05.563Z,29.66
2022-08-17T12:10:35.511Z,29.63
2022-08-17T12:13:15.562Z,29.48
2022-08-17T12:15:48.818Z,29.34
2022-08-17T12:18:30.313Z,29.53
2022-08-17T12:21:37.932Z,29.41
2022-08-17T12:24:19.926Z,29.46
2022-08-17T12:26:53.539Z,29.43
2022-08-17T12:29:38.214Z,29.43
2022-08-17T12:32:07.055Z,29.36
2022-08-17T12:34:40.750Z,29.55
2022-08-17T12:37:24.898Z,29.59
2022-08-17T12:40:02.781Z,29.49
2022-08-17T12:42:34.778Z,29.64
2022-08-17T12:45:01.480Z,29.86
2022-08-17T12:47:30.069Z,29.91
2022-08-17T12:50:28.667Z,29.59
2022-08-17T12:53:01.719Z,29.41
2022-08-17T12:55:32.551Z,29.68
2022-08-17T12:58:01.892Z,29.60
2022-08-17T13:00:34.723Z,29.59
2022-08-17T13:03:19.159Z,29.53
2022-08-17T13:05:57.235Z,29.32
2022-08-17T13:08:45.504Z,29.49
2022-08-17T13:11:16.188Z,29.61
2022-08-17T13:13:46.452Z,29.50
2022-08-17T13:16:12.923Z,29.61
2022-08-17T13:18:44.164Z,30.10
2022-08-17T13:21:12.577Z,30.10
2022-08-17T13:23:39.090Z,30.08
2022-08-17T13:26:15.925Z,30.15
2022-08-17T13:28:51.607Z,29.93
2022-08-17T13:31:22.304Z,29.69
2022-08-17T13:33:48.806Z,29.89
2022-08-17T13:36:30.267Z,29.64
2022-08-17T13:39:15.009Z,29.55
2022-08-17T13:41:42.094Z,29.61
2022-08-17T13:44:30.541Z,29.75
2022-08-17T13:46:59.647Z,29.76
2022-08-17T13:49:41.553Z,29.59
2022-08-17T13:52:40.303Z,29.39
2022-08-17T13:55:21.239Z,29.49
2022-08-17T13:58:05.016Z,29.49
2022-08-17T14:00:36.418Z,29.26
2022-08-17T14:03:05.424Z,29.10
2022-08-17T14:05:32.496Z,29.15
2022-08-17T14:08:02.263Z,29.38
2022-08-17T14:10:35.826Z,29.23
2022-08-17T14:13:02.762Z,29.34
2022-08-17T14:15:55.245Z,29.41
2022-08-17T14:18:18.053Z,29.31
2022-08-17T14:21:04.685Z,29.34
2022-08-17T14:23:33.004Z,29.09
2022-08-17T14:25:59.835Z,28.97
2022-08-17T14:28:26.817Z,28.95
2022-08-17T14:30:54.597Z,28.97
2022-08-17T14:33:22.706Z,28.94
2022-08-17T14:35:53.756Z,28.95
2022-08-17T14:38:20.795Z,28.89
2022-08-17T14:40:49.440Z,28.78
2022-08-17T14:43:16.028Z,28.97
2022-08-17T14:45:43.142Z,29.15
2022-08-17T14:48:10.543Z,29.32
2022-08-17T14:50:40.614Z,29.39
2022-08-17T14:53:13.924Z,29.44
2022-08-17T14:55:40.786Z,29.20
2022-08-17T14:58:09.113Z,29.08
2022-08-17T15:00:39.460Z,29.47
2022-08-17T15:03:06.062Z,29.43
2022-08-17T15:05:36.583Z,29.35
2022-08-17T15:08:05.542Z,29.36
2022-08-17T15:10:33.002Z,29.44
2022-08-17T15:13:00.300Z,29.32
2022-08-17T15:15:27.792Z,29.27
2022-08-17T15:17:54.790Z,28.90
2022-08-17T15:20:28.016Z,29.10
2022-08-17T15:22:56.085Z,29.56
2022-08-17T15:25:24.356Z,29.31
2022-08-17T15:27:51.445Z,29.04
2022-08-17T15:30:18.835Z,29.32
2022-08-17T15:32:51.416Z,29.01
2022-08-17T15:35:27.945Z,28.92
2022-08-17T15:38:10.154Z,28.77
2022-08-17T15:40:41.455Z,28.75
2022-08-17T15:43:11.753Z,29.14
2022-08-17T15:45:39.474Z,29.04
2022-08-17T15:48:07.206Z,29.22
2022-08-17T15:50:33.844Z,29.19
2022-08-17T15:53:01.640Z,29.04
2022-08-17T15:55:30.432Z,29.14
2022-08-17T15:57:57.325Z,29.06
2022-08-17T16:00:24.165Z,28.99
2022-08-17T16:03:44.715Z,28.81
2022-08-17T16:05:40.704Z,28.57
2022-08-17T16:08:07.841Z,28.53
2022-08-17T16:10:35.991Z,28.51
2022-08-17T16:13:04.163Z,28.18
2022-08-17T16:15:31.917Z,28.41
2022-08-17T16:17:59.215Z,28.46
2022-08-17T16:20:26.354Z,28.44
2022-08-17T16:22:54.256Z,28.22
2022-08-17T16:25:50.344Z,28.08
2022-08-17T16:28:13.334Z,27.83
2022-08-17T16:30:41.270Z,28.03
2022-08-17T16:33:11.415Z,27.84
2022-08-17T16:35:38.345Z,27.95
2022-08-17T16:38:05.001Z,27.85
2022-08-17T16:40:35.829Z,28.01
2022-08-17T16:43:04.401Z,28.03
2022-08-17T16:45:36.808Z,27.95
2022-08-17T16:48:04.047Z,27.73
2022-08-17T16:50:32.309Z,27.60
2022-08-17T16:53:11.477Z,27.69
2022-08-17T16:55:38.521Z,27.70
2022-08-17T16:58:06.737Z,27.42
2022-08-17T17:00:33.758Z,27.43
2022-08-17T17:03:19.940Z,27.38
2022-08-17T17:06:06.314Z,27.35
2022-08-17T17:08:48.397Z,27.05
2022-08-17T17:11:23.087Z,27.22
2022-08-17T17:14:02.102Z,27.23
2022-08-17T17:16:28.617Z,27.29
2022-08-17T17:18:58.215Z,27.04
2022-08-17T17:21:35.739Z,27.12
2022-08-17T17:24:10.032Z,27.24
2022-08-17T17:27:07.312Z,27.14
2022-08-17T17:30:02.180Z,26.90
2022-08-17T17:32:54.613Z,26.75
2022-08-17T17:35:43.765Z,26.55
2022-08-17T17:38:21.432Z,26.45
2022-08-17T17:40:52.970Z,26.27
2022-08-17T17:43:38.835Z,26.24
2022-08-17T17:46:28.322Z,26.38
2022-08-17T17:48:57.449Z,26.46
2022-08-17T17:52:18.454Z,26.09
2022-08-17T17:54:55.002Z,26.05
2022-08-17T17:57:30.343Z,25.84
2022-08-17T18:00:08.694Z,25.74
2022-08-17T18:03:06.486Z,25.65
2022-08-17T18:05:39.415Z,25.82
2022-08-17T18:08:14.026Z,25.64
2022-08-17T18:10:49.250Z,25.70
2022-08-17T18:13:54.509Z,25.48
2022-08-17T18:16:21.363Z,25.31
2022-08-17T18:18:50.139Z,25.22
2022-08-17T18:21:25.314Z,25.38
2022-08-17T18:24:01.622Z,25.23
2022-08-17T18:26:36.740Z,25.26
2022-08-17T18:29:34.380Z,25.20
2022-08-17T18:32:16.241Z,25.21
2022-08-17T18:34:48.202Z,25.18
2022-08-17T18:37:31.999Z,25.17
2022-08-17T18:39:58.646Z,24.94
2022-08-17T18:42:29.118Z,24.17
2022-08-17T18:44:56.201Z,23.40
2022-08-17T18:47:28.625Z,22.80
2022-08-17T18:49:58.691Z,22.01
2022-08-17T18:52:33.195Z,21.31
2022-08-17T18:55:13.099Z,21.06
2022-08-17T18:57:43.502Z,20.88
2022-08-17T19:00:20.377Z,20.72
2022-08-17T19:02:57.329Z,20.48
2022-08-17T19:05:41.538Z,20.22
2022-08-17T19:08:35.542Z,19.97
2022-08-17T19:11:17.219Z,20.18
2022-08-17T19:13:55.630Z,20.49
2022-08-17T19:16:41.249Z,20.18
2022-08-17T19:19:17.004Z,20.34
2022-08-17T19:21:53.560Z,20.31
2022-08-17T19:24:23.602Z,20.26
2022-08-17T19:27:15.694Z,20.04
2022-08-17T19:29:50.829Z,19.94
2022-08-17T19:32:25.002Z,20.08
2022-08-17T19:34:52.279Z,19.91
2022-08-17T19:37:47.391Z,19.93
2022-08-17T19:41:11.264Z,20.01
2022-08-17T19:43:50.493Z,19.77
2022-08-17T19:46:35.608Z,19.66
2022-08-17T19:49:34.523Z,19.68
2022-08-17T19:52:28.080Z,19.90
2022-08-17T19:55:05.254Z,19.74
2022-08-17T19:57:50.561Z,19.78
2022-08-17T20:00:19.109Z,19.79
2022-08-17T20:03:16.177Z,19.84
2022-08-17T20:06:13.140Z,19.83
2022-08-17T20:08:59.061Z,19.90
2022-08-17T20:11:38.824Z,19.87
2022-08-17T20:14:13.733Z,19.90
2022-08-17T20:16:41.561Z,19.87
2022-08-17T20:19:12.576Z,19.87
2022-08-17T20:21:52.960Z,19.89
2022-08-17T20:24:28.631Z,19.81
2022-08-17T20:26:59.769Z,19.81
2022-08-17T20:29:40.141Z,19.79
2022-08-17T20:32:21.618Z,19.77
2022-08-17T20:34:48.390Z,19.82
2022-08-17T20:37:14.906Z,19.86
2022-08-17T20:39:41.390Z,19.81
2022-08-17T20:42:21.950Z,19.94
2022-08-17T20:44:57.647Z,20.06
2022-08-17T20:48:07.489Z,20.08
2022-08-17T20:50:45.110Z,20.04
2022-08-17T20:53:15.727Z,19.94
2022-08-17T20:55:51.635Z,19.96
2022-08-17T20:58:24.447Z,20.17
2022-08-17T21:00:57.825Z,20.00
2022-08-17T21:03:24.469Z,19.91
2022-08-17T21:05:59.875Z,19.93
2022-08-17T21:09:04.805Z,19.84
2022-08-17T21:12:03.462Z,19.79
2022-08-17T21:14:46.265Z,19.77
2022-08-17T21:17:38.220Z,19.59
2022-08-17T21:20:49.501Z,19.63
2022-08-17T21:23:28.131Z,19.65
2022-08-17T21:26:32.166Z,19.65
2022-08-17T21:29:29.508Z,19.60
2022-08-17T21:32:05.268Z,19.59
2022-08-17T21:34:44.239Z,19.53
2022-08-17T21:37:19.893Z,19.52
2022-08-17T21:40:00.620Z,19.55
2022-08-17T21:42:36.138Z,19.47
2022-08-17T21:45:18.220Z,19.53
2022-08-17T21:48:07.369Z,19.53
2022-08-17T21:50:35.645Z,19.51
2022-08-17T21:53:04.802Z,19.57
2022-08-17T21:55:33.205Z,19.54
2022-08-17T21:58:13.994Z,19.53
2022-08-17T22:00:44.358Z,19.41
2022-08-17T22:03:24.103Z,19.39
2022-08-17T22:05:51.586Z,19.32
2022-08-17T22:08:22.656Z,19.35
2022-08-17T22:10:51.365Z,19.33
2022-08-17T22:13:17.988Z,19.42
2022-08-17T22:15:50.792Z,19.29
2022-08-17T22:18:24.818Z,19.30
2022-08-17T22:20:57.941Z,19.33
2022-08-17T22:23:58.845Z,19.30
2022-08-17T22:26:47.187Z,19.16
2022-08-17T22:29:44.639Z,19.18
2022-08-17T22:32:29.313Z,19.09
2022-08-17T22:35:34.809Z,19.10
2022-08-17T22:38:19.480Z,19.03
2022-08-17T22:40:53.854Z,19.08
2022-08-17T22:43:26.606Z,18.95
2022-08-17T22:45:57.296Z,18.81
2022-08-17T22:48:27.915Z,18.79
2022-08-17T22:51:12.734Z,18.67
2022-08-17T22:54:09.126Z,18.59
2022-08-17T22:56:54.473Z,18.60
2022-08-17T22:59:45.875Z,18.49
2022-08-17T23:02:34.674Z,18.41
2022-08-17T23:05:11.727Z,18.35
2022-08-17T23:07:40.013Z,18.28
2022-08-17T23:10:09.624Z,18.18
2022-08-17T23:12:39.734Z,18.16
2022-08-17T23:15:18.991Z,18.19
2022-08-17T23:17:46.007Z,18.05
2022-08-17T23:20:15.315Z,18.01
2022-08-17T23:22:51.443Z,18.03
2022-08-17T23:25:27.085Z,17.94
2022-08-17T23:27:54.511Z,17.83
2022-08-17T23:30:23.225Z,17.73
2022-08-17T23:32:53.709Z,17.67
2022-08-17T23:35:39.683Z,17.67
2022-08-17T23:38:11.808Z,17.61
2022-08-17T23:40:39.368Z,17.63
2022-08-17T23:43:24.824Z,17.65
2022-08-17T23:45:57.973Z,17.66
2022-08-17T23:48:28.592Z,17.80
2022-08-17T23:51:09.772Z,17.85
2022-08-17T23:53:40.169Z,17.95
2022-08-17T23:56:11.503Z,17.89
2022-08-17T23:58:43.114Z,17.94
